sensor_id;sensor_type;location;lat;lon;timestamp;temperature;humidity
15676;DHT22;7938;47.666;9.434;2023-06-14T04:00:26;12.00;69.80
15676;DHT22;7938;47.666;9.434;2023-06-14T04:02:53;12.50;70.80
15676;DHT22;7938;47.666;9.434;2023-06-14T04:05:20;11.90;70.00
15676;DHT22;7938;47.666;9.434;2023-06-14T04:07:47;11.90;70.00
15676;DHT22;7938;47.666;9.434;2023-06-14T04:10:16;12.00;70.30
15676;DHT22;7938;47.666;9.434;2023-06-14T04:12:43;11.90;70.30
15676;DHT22;7938;47.666;9.434;2023-06-14T04:15:10;11.90;70.70
15676;DHT22;7938;47.666;9.434;2023-06-14T04:17:38;11.90;71.10
15676;DHT22;7938;47.666;9.434;2023-06-14T04:20:06;12.00;71.10
15676;DHT22;7938;47.666;9.434;2023-06-14T04:22:35;12.00;70.30
15676;DHT22;7938;47.666;9.434;2023-06-14T04:25:03;12.10;70.90
15676;DHT22;7938;47.666;9.434;2023-06-14T04:27:31;12.20;71.00
15676;DHT22;7938;47.666;9.434;2023-06-14T04:30:02;12.30;70.80
15676;DHT22;7938;47.666;9.434;2023-06-14T04:32:29;12.30;70.40
15676;DHT22;7938;47.666;9.434;2023-06-14T04:35:00;12.20;71.30
15676;DHT22;7938;47.666;9.434;2023-06-14T04:37:29;12.30;71.60
15676;DHT22;7938;47.666;9.434;2023-06-14T04:39:56;12.30;71.70
15676;DHT22;7938;47.666;9.434;2023-06-14T04:42:23;12.40;70.80
15676;DHT22;7938;47.666;9.434;2023-06-14T04:44:56;12.40;72.10
15676;DHT22;7938;47.666;9.434;2023-06-14T04:47:24;12.40;72.20
15676;DHT22;7938;47.666;9.434;2023-06-14T04:49:56;12.50;72.10
15676;DHT22;7938;47.666;9.434;2023-06-14T04:52:24;12.50;71.70
15676;DHT22;7938;47.666;9.434;2023-06-14T04:54:52;12.50;72.30
15676;DHT22;7938;47.666;9.434;2023-06-14T04:57:19;12.70;71.90
15676;DHT22;7938;47.666;9.434;2023-06-14T04:59:48;12.80;72.60
15676;DHT22;7938;47.666;9.434;2023-06-14T05:02:21;12.90;71.80
15676;DHT22;7938;47.666;9.434;2023-06-14T05:04:49;12.90;71.90
15676;DHT22;7938;47.666;9.434;2023-06-14T05:07:16;13.00;72.20
15676;DHT22;7938;47.666;9.434;2023-06-14T05:09:45;13.10;72.50
15676;DHT22;7938;47.666;9.434;2023-06-14T05:12:12;13.20;72.50
15676;DHT22;7938;47.666;9.434;2023-06-14T05:14:39;13.30;73.20
15676;DHT22;7938;47.666;9.434;2023-06-14T05:17:06;13.40;72.20
15676;DHT22;7938;47.666;9.434;2023-06-14T05:19:33;13.50;72.30
15676;DHT22;7938;47.666;9.434;2023-06-14T05:22:00;13.60;71.80
15676;DHT22;7938;47.666;9.434;2023-06-14T05:24:28;13.70;71.70
15676;DHT22;7938;47.666;9.434;2023-06-14T05:26:57;13.80;71.60
15676;DHT22;7938;47.666;9.434;2023-06-14T05:29:24;14.00;71.10
15676;DHT22;7938;47.666;9.434;2023-06-14T05:31:51;14.30;70.40
15676;DHT22;7938;47.666;9.434;2023-06-14T05:34:18;14.30;70.70
15676;DHT22;7938;47.666;9.434;2023-06-14T05:36:45;14.40;70.10
15676;DHT22;7938;47.666;9.434;2023-06-14T05:39:12;14.50;69.60
15676;DHT22;7938;47.666;9.434;2023-06-14T05:41:40;14.60;69.10
15676;DHT22;7938;47.666;9.434;2023-06-14T05:44:09;14.60;69.80
15676;DHT22;7938;47.666;9.434;2023-06-14T05:46:36;14.90;69.60
15676;DHT22;7938;47.666;9.434;2023-06-14T05:49:05;15.00;69.60
15676;DHT22;7938;47.666;9.434;2023-06-14T05:51:32;15.00;68.30
15676;DHT22;7938;47.666;9.434;2023-06-14T05:53:59;15.10;69.00
15676;DHT22;7938;47.666;9.434;2023-06-14T05:56:26;15.10;69.10
15676;DHT22;7938;47.666;9.434;2023-06-14T05:58:53;15.20;69.50
15676;DHT22;7938;47.666;9.434;2023-06-14T06:01:21;15.40;67.90
15676;DHT22;7938;47.666;9.434;2023-06-14T06:03:48;15.40;68.70
15676;DHT22;7938;47.666;9.434;2023-06-14T06:06:15;15.50;68.20
15676;DHT22;7938;47.666;9.434;2023-06-14T06:08:43;15.50;68.80
15676;DHT22;7938;47.666;9.434;2023-06-14T06:11:10;15.70;67.60
15676;DHT22;7938;47.666;9.434;2023-06-14T06:13:37;15.70;68.30
15676;DHT22;7938;47.666;9.434;2023-06-14T06:16:06;15.90;67.10
15676;DHT22;7938;47.666;9.434;2023-06-14T06:18:34;15.90;67.90
15676;DHT22;7938;47.666;9.434;2023-06-14T06:21:02;16.10;66.40
15676;DHT22;7938;47.666;9.434;2023-06-14T06:23:29;16.20;67.30
15676;DHT22;7938;47.666;9.434;2023-06-14T06:25:56;16.20;67.60
15676;DHT22;7938;47.666;9.434;2023-06-14T06:28:23;16.40;66.00
15676;DHT22;7938;47.666;9.434;2023-06-14T06:30:50;16.50;65.50
15676;DHT22;7938;47.666;9.434;2023-06-14T06:33:17;16.50;66.30
15676;DHT22;7938;47.666;9.434;2023-06-14T06:35:45;16.60;66.00
15676;DHT22;7938;47.666;9.434;2023-06-14T06:40:39;16.80;65.40
15676;DHT22;7938;47.666;9.434;2023-06-14T06:43:06;16.80;66.50
15676;DHT22;7938;47.666;9.434;2023-06-14T06:45:33;16.90;65.90
15676;DHT22;7938;47.666;9.434;2023-06-14T06:48:00;17.00;64.90
15676;DHT22;7938;47.666;9.434;2023-06-14T06:50:27;17.20;65.50
15676;DHT22;7938;47.666;9.434;2023-06-14T06:52:55;17.20;66.00
15676;DHT22;7938;47.666;9.434;2023-06-14T06:55:22;17.20;64.60
15676;DHT22;7938;47.666;9.434;2023-06-14T06:57:49;17.30;66.00
15676;DHT22;7938;47.666;9.434;2023-06-14T07:00:18;17.40;65.40
15676;DHT22;7938;47.666;9.434;2023-06-14T07:02:45;17.60;66.50
15676;DHT22;7938;47.666;9.434;2023-06-14T07:05:12;17.60;64.10
15676;DHT22;7938;47.666;9.434;2023-06-14T07:07:40;17.50;66.60
15676;DHT22;7938;47.666;9.434;2023-06-14T07:10:11;17.50;66.10
15676;DHT22;7938;47.666;9.434;2023-06-14T07:12:38;17.30;66.30
15676;DHT22;7938;47.666;9.434;2023-06-14T07:15:06;17.30;65.80
15676;DHT22;7938;47.666;9.434;2023-06-14T07:17:34;17.40;66.20
15676;DHT22;7938;47.666;9.434;2023-06-14T07:20:01;17.50;65.70
15676;DHT22;7938;47.666;9.434;2023-06-14T07:22:38;17.60;65.00
15676;DHT22;7938;47.666;9.434;2023-06-14T07:25:08;17.60;64.00
15676;DHT22;7938;47.666;9.434;2023-06-14T07:27:35;17.90;64.70
15676;DHT22;7938;47.666;9.434;2023-06-14T07:30:02;18.20;63.50
15676;DHT22;7938;47.666;9.434;2023-06-14T07:32:29;18.40;66.60
15676;DHT22;7938;47.666;9.434;2023-06-14T07:34:56;18.10;70.10
15676;DHT22;7938;47.666;9.434;2023-06-14T07:37:23;18.00;69.80
15676;DHT22;7938;47.666;9.434;2023-06-14T07:39:50;18.00;70.20
15676;DHT22;7938;47.666;9.434;2023-06-14T07:42:18;18.20;70.80
15676;DHT22;7938;47.666;9.434;2023-06-14T07:44:45;18.20;71.40
15676;DHT22;7938;47.666;9.434;2023-06-14T07:47:12;18.30;70.10
15676;DHT22;7938;47.666;9.434;2023-06-14T07:49:39;18.40;71.40
15676;DHT22;7938;47.666;9.434;2023-06-14T07:52:06;18.40;71.70
15676;DHT22;7938;47.666;9.434;2023-06-14T07:54:33;18.40;71.70
15676;DHT22;7938;47.666;9.434;2023-06-14T07:57:00;18.20;72.30
15676;DHT22;7938;47.666;9.434;2023-06-14T07:59:29;18.00;72.70
15676;DHT22;7938;47.666;9.434;2023-06-14T08:01:56;18.00;72.30
15676;DHT22;7938;47.666;9.434;2023-06-14T08:04:23;18.00;73.30
15676;DHT22;7938;47.666;9.434;2023-06-14T08:06:50;17.90;73.10
15676;DHT22;7938;47.666;9.434;2023-06-14T08:09:17;18.00;73.90
15676;DHT22;7938;47.666;9.434;2023-06-14T08:11:44;18.00;72.20
15676;DHT22;7938;47.666;9.434;2023-06-14T08:14:11;18.10;72.30
15676;DHT22;7938;47.666;9.434;2023-06-14T08:16:39;17.20;71.60
15676;DHT22;7938;47.666;9.434;2023-06-14T08:19:06;18.20;72.10
15676;DHT22;7938;47.666;9.434;2023-06-14T08:21:33;18.20;71.70
15676;DHT22;7938;47.666;9.434;2023-06-14T08:24:02;18.20;72.40
15676;DHT22;7938;47.666;9.434;2023-06-14T08:26:29;18.30;73.10
15676;DHT22;7938;47.666;9.434;2023-06-14T08:28:57;18.40;73.30
15676;DHT22;7938;47.666;9.434;2023-06-14T08:31:25;18.50;72.30
15676;DHT22;7938;47.666;9.434;2023-06-14T08:33:54;18.50;73.10
15676;DHT22;7938;47.666;9.434;2023-06-14T08:36:21;18.40;73.70
15676;DHT22;7938;47.666;9.434;2023-06-14T08:38:48;18.60;73.30
15676;DHT22;7938;47.666;9.434;2023-06-14T08:41:20;18.60;71.90
15676;DHT22;7938;47.666;9.434;2023-06-14T08:43:48;18.70;73.50
15676;DHT22;7938;47.666;9.434;2023-06-14T08:46:18;18.70;73.50
15676;DHT22;7938;47.666;9.434;2023-06-14T08:48:47;18.70;73.10
15676;DHT22;7938;47.666;9.434;2023-06-14T08:51:18;19.00;72.10
15676;DHT22;7938;47.666;9.434;2023-06-14T08:53:51;19.00;72.40
15676;DHT22;7938;47.666;9.434;2023-06-14T08:56:19;18.90;72.20
15676;DHT22;7938;47.666;9.434;2023-06-14T08:58:47;19.00;71.10
15676;DHT22;7938;47.666;9.434;2023-06-14T09:01:15;18.80;72.90
15676;DHT22;7938;47.666;9.434;2023-06-14T09:03:43;18.80;72.50
15676;DHT22;7938;47.666;9.434;2023-06-14T09:06:10;19.00;71.90
15676;DHT22;7938;47.666;9.434;2023-06-14T09:08:42;19.00;72.00
15676;DHT22;7938;47.666;9.434;2023-06-14T09:11:11;19.20;71.40
15676;DHT22;7938;47.666;9.434;2023-06-14T09:13:38;19.00;70.80
15676;DHT22;7938;47.666;9.434;2023-06-14T09:16:06;19.10;72.60
15676;DHT22;7938;47.666;9.434;2023-06-14T09:18:37;19.30;72.30
15676;DHT22;7938;47.666;9.434;2023-06-14T09:21:06;19.50;71.00
15676;DHT22;7938;47.666;9.434;2023-06-14T09:23:36;19.40;72.10
15676;DHT22;7938;47.666;9.434;2023-06-14T09:26:08;19.40;71.60
15676;DHT22;7938;47.666;9.434;2023-06-14T09:28:35;19.50;71.40
15676;DHT22;7938;47.666;9.434;2023-06-14T09:31:02;19.60;71.00
15676;DHT22;7938;47.666;9.434;2023-06-14T09:33:31;19.70;71.50
15676;DHT22;7938;47.666;9.434;2023-06-14T09:35:58;19.80;71.60
15676;DHT22;7938;47.666;9.434;2023-06-14T09:38:25;19.90;70.10
15676;DHT22;7938;47.666;9.434;2023-06-14T09:40:54;20.20;69.30
15676;DHT22;7938;47.666;9.434;2023-06-14T09:43:23;20.20;70.60
15676;DHT22;7938;47.666;9.434;2023-06-14T09:45:54;20.70;70.20
15676;DHT22;7938;47.666;9.434;2023-06-14T09:48:21;21.00;69.80
15676;DHT22;7938;47.666;9.434;2023-06-14T09:50:50;21.00;70.40
15676;DHT22;7938;47.666;9.434;2023-06-14T09:53:21;21.00;71.40
15676;DHT22;7938;47.666;9.434;2023-06-14T09:55:49;21.00;70.30
15676;DHT22;7938;47.666;9.434;2023-06-14T09:58:20;21.20;68.90
15676;DHT22;7938;47.666;9.434;2023-06-14T10:00:51;21.40;67.90
15676;DHT22;7938;47.666;9.434;2023-06-14T10:03:22;21.30;67.70
15676;DHT22;7938;47.666;9.434;2023-06-14T10:05:51;21.60;65.60
15676;DHT22;7938;47.666;9.434;2023-06-14T10:08:19;21.80;68.50
15676;DHT22;7938;47.666;9.434;2023-06-14T10:10:49;22.00;66.90
15676;DHT22;7938;47.666;9.434;2023-06-14T10:13:16;22.00;66.10
15676;DHT22;7938;47.666;9.434;2023-06-14T10:15:52;22.50;55.40
15676;DHT22;7938;47.666;9.434;2023-06-14T10:18:30;22.70;52.60
15676;DHT22;7938;47.666;9.434;2023-06-14T10:21:04;23.20;50.50
15676;DHT22;7938;47.666;9.434;2023-06-14T10:23:38;23.20;52.50
15676;DHT22;7938;47.666;9.434;2023-06-14T10:26:07;23.30;51.00
15676;DHT22;7938;47.666;9.434;2023-06-14T10:28:37;23.60;51.70
15676;DHT22;7938;47.666;9.434;2023-06-14T10:31:09;23.80;51.90
15676;DHT22;7938;47.666;9.434;2023-06-14T10:33:39;24.00;51.50
15676;DHT22;7938;47.666;9.434;2023-06-14T10:36:25;24.00;50.90
15676;DHT22;7938;47.666;9.434;2023-06-14T10:39:01;24.10;51.20
15676;DHT22;7938;47.666;9.434;2023-06-14T10:41:32;24.30;49.30
15676;DHT22;7938;47.666;9.434;2023-06-14T10:46:54;24.20;50.70
15676;DHT22;7938;47.666;9.434;2023-06-14T10:49:40;24.40;50.50
15676;DHT22;7938;47.666;9.434;2023-06-14T10:52:12;24.40;49.90
15676;DHT22;7938;47.666;9.434;2023-06-14T10:55:02;24.40;48.50
15676;DHT22;7938;47.666;9.434;2023-06-14T10:57:32;24.40;51.00
15676;DHT22;7938;47.666;9.434;2023-06-14T10:59:59;24.40;50.30
15676;DHT22;7938;47.666;9.434;2023-06-14T11:02:56;24.60;49.50
15676;DHT22;7938;47.666;9.434;2023-06-14T11:05:30;24.70;50.90
15676;DHT22;7938;47.666;9.434;2023-06-14T11:10:59;24.50;48.10
15676;DHT22;7938;47.666;9.434;2023-06-14T11:13:26;24.50;50.40
15676;DHT22;7938;47.666;9.434;2023-06-14T11:15:54;24.50;48.20
15676;DHT22;7938;47.666;9.434;2023-06-14T11:18:24;24.60;48.70
15676;DHT22;7938;47.666;9.434;2023-06-14T11:20:53;24.80;48.50
15676;DHT22;7938;47.666;9.434;2023-06-14T11:23:21;24.80;48.50
15676;DHT22;7938;47.666;9.434;2023-06-14T11:25:50;24.80;48.60
15676;DHT22;7938;47.666;9.434;2023-06-14T11:28:17;24.90;49.70
15676;DHT22;7938;47.666;9.434;2023-06-14T11:30:47;25.10;49.30
15676;DHT22;7938;47.666;9.434;2023-06-14T11:33:17;25.00;49.30
15676;DHT22;7938;47.666;9.434;2023-06-14T11:35:46;25.00;49.80
15676;DHT22;7938;47.666;9.434;2023-06-14T11:38:13;25.20;50.00
15676;DHT22;7938;47.666;9.434;2023-06-14T11:40:40;25.10;50.00
15676;DHT22;7938;47.666;9.434;2023-06-14T11:43:07;25.20;51.20
15676;DHT22;7938;47.666;9.434;2023-06-14T11:45:35;25.20;49.80
15676;DHT22;7938;47.666;9.434;2023-06-14T11:48:02;25.30;50.90
15676;DHT22;7938;47.666;9.434;2023-06-14T11:50:29;25.20;47.00
15676;DHT22;7938;47.666;9.434;2023-06-14T11:52:59;25.20;47.50
15676;DHT22;7938;47.666;9.434;2023-06-14T11:55:32;25.50;49.50
15676;DHT22;7938;47.666;9.434;2023-06-14T11:58:02;25.50;47.90
15676;DHT22;7938;47.666;9.434;2023-06-14T12:00:29;25.30;48.70
15676;DHT22;7938;47.666;9.434;2023-06-14T12:02:57;25.30;49.80
15676;DHT22;7938;47.666;9.434;2023-06-14T12:05:24;25.30;48.90
15676;DHT22;7938;47.666;9.434;2023-06-14T12:07:59;25.30;47.50
15676;DHT22;7938;47.666;9.434;2023-06-14T12:10:27;25.30;47.10
15676;DHT22;7938;47.666;9.434;2023-06-14T12:12:57;25.30;47.30
15676;DHT22;7938;47.666;9.434;2023-06-14T12:15:27;25.30;48.70
15676;DHT22;7938;47.666;9.434;2023-06-14T12:17:54;25.50;50.20
15676;DHT22;7938;47.666;9.434;2023-06-14T12:20:21;25.80;47.00
15676;DHT22;7938;47.666;9.434;2023-06-14T12:22:52;25.70;48.70
15676;DHT22;7938;47.666;9.434;2023-06-14T12:25:31;25.70;48.20
15676;DHT22;7938;47.666;9.434;2023-06-14T12:27:58;25.60;47.20
15676;DHT22;7938;47.666;9.434;2023-06-14T12:30:25;25.50;46.50
15676;DHT22;7938;47.666;9.434;2023-06-14T12:32:52;25.60;46.80
15676;DHT22;7938;47.666;9.434;2023-06-14T12:35:19;25.60;48.10
15676;DHT22;7938;47.666;9.434;2023-06-14T12:37:46;25.70;49.00
15676;DHT22;7938;47.666;9.434;2023-06-14T12:40:13;25.60;48.20
15676;DHT22;7938;47.666;9.434;2023-06-14T12:42:42;25.70;48.00
15676;DHT22;7938;47.666;9.434;2023-06-14T12:45:09;26.00;47.80
15676;DHT22;7938;47.666;9.434;2023-06-14T12:47:36;26.20;49.20
15676;DHT22;7938;47.666;9.434;2023-06-14T12:50:04;26.20;48.40
15676;DHT22;7938;47.666;9.434;2023-06-14T12:52:31;26.10;46.70
15676;DHT22;7938;47.666;9.434;2023-06-14T12:55:01;26.20;48.00
15676;DHT22;7938;47.666;9.434;2023-06-14T12:57:29;26.10;46.50
15676;DHT22;7938;47.666;9.434;2023-06-14T12:59:57;26.00;47.70
15676;DHT22;7938;47.666;9.434;2023-06-14T13:02:24;26.10;47.30
15676;DHT22;7938;47.666;9.434;2023-06-14T13:04:51;26.10;47.00
15676;DHT22;7938;47.666;9.434;2023-06-14T13:07:18;26.30;47.20
15676;DHT22;7938;47.666;9.434;2023-06-14T13:09:45;26.20;46.00
15676;DHT22;7938;47.666;9.434;2023-06-14T13:12:12;26.50;45.30
15676;DHT22;7938;47.666;9.434;2023-06-14T13:14:39;26.50;46.50
15676;DHT22;7938;47.666;9.434;2023-06-14T13:17:09;26.40;47.00
15676;DHT22;7938;47.666;9.434;2023-06-14T13:19:36;26.70;47.70
15676;DHT22;7938;47.666;9.434;2023-06-14T13:22:03;26.70;45.30
15676;DHT22;7938;47.666;9.434;2023-06-14T13:24:30;26.80;46.10
15676;DHT22;7938;47.666;9.434;2023-06-14T13:26:57;26.90;47.50
15676;DHT22;7938;47.666;9.434;2023-06-14T13:29:25;27.00;46.70
15676;DHT22;7938;47.666;9.434;2023-06-14T13:31:52;27.00;43.90
15676;DHT22;7938;47.666;9.434;2023-06-14T13:34:20;27.10;45.80
15676;DHT22;7938;47.666;9.434;2023-06-14T13:36:48;27.30;44.70
15676;DHT22;7938;47.666;9.434;2023-06-14T13:39:15;27.40;44.90
15676;DHT22;7938;47.666;9.434;2023-06-14T13:41:42;27.60;44.80
15676;DHT22;7938;47.666;9.434;2023-06-14T13:44:09;27.80;46.10
15676;DHT22;7938;47.666;9.434;2023-06-14T13:46:39;28.00;44.60
15676;DHT22;7938;47.666;9.434;2023-06-14T13:49:08;28.90;43.50
15676;DHT22;7938;47.666;9.434;2023-06-14T13:51:37;30.50;42.10
15676;DHT22;7938;47.666;9.434;2023-06-14T13:54:04;30.60;41.50
15676;DHT22;7938;47.666;9.434;2023-06-14T13:56:31;31.00;39.90
15676;DHT22;7938;47.666;9.434;2023-06-14T13:58:58;32.10;40.60
15676;DHT22;7938;47.666;9.434;2023-06-14T14:01:25;32.40;39.10
15676;DHT22;7938;47.666;9.434;2023-06-14T14:03:54;31.70;39.00
15676;DHT22;7938;47.666;9.434;2023-06-14T14:06:21;32.40;38.70
15676;DHT22;7938;47.666;9.434;2023-06-14T14:08:50;32.30;38.70
15676;DHT22;7938;47.666;9.434;2023-06-14T14:11:18;32.40;40.30
15676;DHT22;7938;47.666;9.434;2023-06-14T14:13:46;33.10;38.60
15676;DHT22;7938;47.666;9.434;2023-06-14T14:16:13;33.30;38.50
15676;DHT22;7938;47.666;9.434;2023-06-14T14:18:40;33.60;38.50
15676;DHT22;7938;47.666;9.434;2023-06-14T14:21:07;33.60;39.40
15676;DHT22;7938;47.666;9.434;2023-06-14T14:23:35;33.10;38.60
15676;DHT22;7938;47.666;9.434;2023-06-14T14:26:03;33.00;39.30
15676;DHT22;7938;47.666;9.434;2023-06-14T14:28:30;32.40;39.50
15676;DHT22;7938;47.666;9.434;2023-06-14T14:30:58;32.00;39.60
15676;DHT22;7938;47.666;9.434;2023-06-14T14:33:25;32.50;38.80
15676;DHT22;7938;47.666;9.434;2023-06-14T14:35:52;33.00;38.50
15676;DHT22;7938;47.666;9.434;2023-06-14T14:38:18;34.00;38.40
15676;DHT22;7938;47.666;9.434;2023-06-14T14:40:45;33.10;37.10
15676;DHT22;7938;47.666;9.434;2023-06-14T14:43:14;34.90;36.00
15676;DHT22;7938;47.666;9.434;2023-06-14T14:45:41;35.40;36.20
15676;DHT22;7938;47.666;9.434;2023-06-14T14:48:07;36.30;34.30
15676;DHT22;7938;47.666;9.434;2023-06-14T14:50:34;35.90;35.80
15676;DHT22;7938;47.666;9.434;2023-06-14T14:53:01;36.10;36.60
15676;DHT22;7938;47.666;9.434;2023-06-14T14:55:28;36.30;36.50
15676;DHT22;7938;47.666;9.434;2023-06-14T14:57:56;36.30;34.50
15676;DHT22;7938;47.666;9.434;2023-06-14T15:00:24;34.80;35.60
15676;DHT22;7938;47.666;9.434;2023-06-14T15:02:51;35.70;35.50
15676;DHT22;7938;47.666;9.434;2023-06-14T15:05:18;34.90;35.40
15676;DHT22;7938;47.666;9.434;2023-06-14T15:07:45;35.30;37.00
15676;DHT22;7938;47.666;9.434;2023-06-14T15:10:12;35.00;35.60
15676;DHT22;7938;47.666;9.434;2023-06-14T15:12:39;35.60;35.60
15676;DHT22;7938;47.666;9.434;2023-06-14T15:15:06;36.30;35.70
15676;DHT22;7938;47.666;9.434;2023-06-14T15:17:36;36.80;33.90
15676;DHT22;7938;47.666;9.434;2023-06-14T15:20:03;36.50;33.90
15676;DHT22;7938;47.666;9.434;2023-06-14T15:22:31;37.40;34.20
15676;DHT22;7938;47.666;9.434;2023-06-14T15:24:58;37.40;34.00
15676;DHT22;7938;47.666;9.434;2023-06-14T15:27:25;36.80;34.10
15676;DHT22;7938;47.666;9.434;2023-06-14T15:29:53;36.50;34.00
15676;DHT22;7938;47.666;9.434;2023-06-14T15:32:20;36.00;35.10
15676;DHT22;7938;47.666;9.434;2023-06-14T15:34:48;36.30;35.20
15676;DHT22;7938;47.666;9.434;2023-06-14T15:37:15;35.70;35.00
15676;DHT22;7938;47.666;9.434;2023-06-14T15:39:42;36.20;36.90
15676;DHT22;7938;47.666;9.434;2023-06-14T15:42:09;37.10;34.70
15676;DHT22;7938;47.666;9.434;2023-06-14T15:44:37;36.80;33.80
15676;DHT22;7938;47.666;9.434;2023-06-14T15:47:04;37.10;34.00
15676;DHT22;7938;47.666;9.434;2023-06-14T15:49:32;36.50;34.20
15676;DHT22;7938;47.666;9.434;2023-06-14T15:52:01;36.40;34.20
15676;DHT22;7938;47.666;9.434;2023-06-14T15:54:28;36.40;34.90
15676;DHT22;7938;47.666;9.434;2023-06-14T15:56:54;38.00;34.60
15676;DHT22;7938;47.666;9.434;2023-06-14T15:59:21;38.10;32.80
15676;DHT22;7938;47.666;9.434;2023-06-14T16:01:48;37.40;34.90
15676;DHT22;7938;47.666;9.434;2023-06-14T16:04:15;37.30;33.80
15676;DHT22;7938;47.666;9.434;2023-06-14T16:06:42;36.00;33.20
15676;DHT22;7938;47.666;9.434;2023-06-14T16:09:10;36.80;34.50
15676;DHT22;7938;47.666;9.434;2023-06-14T16:11:37;37.40;33.40
15676;DHT22;7938;47.666;9.434;2023-06-14T16:14:04;37.90;33.10
15676;DHT22;7938;47.666;9.434;2023-06-14T16:16:31;36.60;33.60
15676;DHT22;7938;47.666;9.434;2023-06-14T16:18:58;36.20;33.70
15676;DHT22;7938;47.666;9.434;2023-06-14T16:21:25;37.40;32.80
15676;DHT22;7938;47.666;9.434;2023-06-14T16:23:52;38.00;33.90
15676;DHT22;7938;47.666;9.434;2023-06-14T16:26:20;38.00;32.30
15676;DHT22;7938;47.666;9.434;2023-06-14T16:28:47;37.60;32.90
15676;DHT22;7938;47.666;9.434;2023-06-14T16:31:14;37.60;33.60
15676;DHT22;7938;47.666;9.434;2023-06-14T16:33:42;37.30;33.20
15676;DHT22;7938;47.666;9.434;2023-06-14T16:36:09;37.10;33.40
15676;DHT22;7938;47.666;9.434;2023-06-14T16:38:38;37.30;34.10
15676;DHT22;7938;47.666;9.434;2023-06-14T16:41:05;37.20;33.90
15676;DHT22;7938;47.666;9.434;2023-06-14T16:43:33;37.50;33.70
15676;DHT22;7938;47.666;9.434;2023-06-14T16:46:01;37.40;33.70
15676;DHT22;7938;47.666;9.434;2023-06-14T16:48:28;36.90;33.30
15676;DHT22;7938;47.666;9.434;2023-06-14T16:50:55;36.60;34.80
15676;DHT22;7938;47.666;9.434;2023-06-14T16:53:22;36.90;34.70
15676;DHT22;7938;47.666;9.434;2023-06-14T16:55:49;36.70;33.80
15676;DHT22;7938;47.666;9.434;2023-06-14T16:58:16;37.00;34.00
15676;DHT22;7938;47.666;9.434;2023-06-14T17:00:44;37.20;33.70
15676;DHT22;7938;47.666;9.434;2023-06-14T17:03:11;37.30;33.60
15676;DHT22;7938;47.666;9.434;2023-06-14T17:05:40;36.70;33.80
15676;DHT22;7938;47.666;9.434;2023-06-14T17:08:20;36.60;34.40
15676;DHT22;7938;47.666;9.434;2023-06-14T17:10:47;35.90;34.90
15676;DHT22;7938;47.666;9.434;2023-06-14T17:13:14;36.80;34.60
15676;DHT22;7938;47.666;9.434;2023-06-14T17:15:41;36.60;34.40
15676;DHT22;7938;47.666;9.434;2023-06-14T17:18:09;36.90;34.40
15676;DHT22;7938;47.666;9.434;2023-06-14T17:20:36;36.20;34.30
15676;DHT22;7938;47.666;9.434;2023-06-14T17:23:03;36.20;35.20
15676;DHT22;7938;47.666;9.434;2023-06-14T17:25:30;36.30;35.00
15676;DHT22;7938;47.666;9.434;2023-06-14T17:27:57;36.60;34.80
15676;DHT22;7938;47.666;9.434;2023-06-14T17:30:24;36.80;33.10
15676;DHT22;7938;47.666;9.434;2023-06-14T17:32:52;36.80;33.60
15676;DHT22;7938;47.666;9.434;2023-06-14T17:35:22;36.80;33.90
15676;DHT22;7938;47.666;9.434;2023-06-14T17:37:49;36.30;33.60
15676;DHT22;7938;47.666;9.434;2023-06-14T17:40:16;36.10;34.40
15676;DHT22;7938;47.666;9.434;2023-06-14T17:42:43;36.30;34.60
15676;DHT22;7938;47.666;9.434;2023-06-14T17:45:10;35.90;34.90
15676;DHT22;7938;47.666;9.434;2023-06-14T17:47:37;35.20;34.60
15676;DHT22;7938;47.666;9.434;2023-06-14T17:50:05;34.50;35.50
15676;DHT22;7938;47.666;9.434;2023-06-14T17:52:34;33.90;35.60
15676;DHT22;7938;47.666;9.434;2023-06-14T17:55:01;33.60;36.70
15676;DHT22;7938;47.666;9.434;2023-06-14T17:57:28;33.60;36.90
15676;DHT22;7938;47.666;9.434;2023-06-14T17:59:55;33.20;37.30
15676;DHT22;7938;47.666;9.434;2023-06-14T18:02:22;31.30;38.20
15676;DHT22;7938;47.666;9.434;2023-06-14T18:04:49;31.10;40.60
15676;DHT22;7938;47.666;9.434;2023-06-14T18:07:18;29.20;41.50
15676;DHT22;7938;47.666;9.434;2023-06-14T18:09:46;28.20;44.50
15676;DHT22;7938;47.666;9.434;2023-06-14T18:12:13;26.80;45.10
15676;DHT22;7938;47.666;9.434;2023-06-14T18:14:40;26.20;46.00
15676;DHT22;7938;47.666;9.434;2023-06-14T18:17:07;25.80;47.60
15676;DHT22;7938;47.666;9.434;2023-06-14T18:19:34;25.40;47.70
15676;DHT22;7938;47.666;9.434;2023-06-14T18:22:03;25.00;47.80
15676;DHT22;7938;47.666;9.434;2023-06-14T18:24:31;24.90;49.40
15676;DHT22;7938;47.666;9.434;2023-06-14T18:27:00;24.60;49.20
15676;DHT22;7938;47.666;9.434;2023-06-14T18:29:28;24.30;50.00
15676;DHT22;7938;47.666;9.434;2023-06-14T18:31:55;23.90;52.60
15676;DHT22;7938;47.666;9.434;2023-06-14T18:34:23;23.80;52.70
15676;DHT22;7938;47.666;9.434;2023-06-14T18:36:50;23.60;53.10
15676;DHT22;7938;47.666;9.434;2023-06-14T18:39:18;23.50;54.60
15676;DHT22;7938;47.666;9.434;2023-06-14T18:41:45;23.10;52.40
15676;DHT22;7938;47.666;9.434;2023-06-14T18:44:14;23.00;55.50
15676;DHT22;7938;47.666;9.434;2023-06-14T18:46:41;22.90;53.00
15676;DHT22;7938;47.666;9.434;2023-06-14T18:49:09;22.80;52.50
15676;DHT22;7938;47.666;9.434;2023-06-14T18:51:36;22.50;55.20
15676;DHT22;7938;47.666;9.434;2023-06-14T18:54:04;22.40;55.70
15676;DHT22;7938;47.666;9.434;2023-06-14T18:56:32;22.30;56.70
15676;DHT22;7938;47.666;9.434;2023-06-14T18:58:59;22.00;55.10
15676;DHT22;7938;47.666;9.434;2023-06-14T19:01:28;21.80;55.60
15676;DHT22;7938;47.666;9.434;2023-06-14T19:03:55;21.80;54.90
15676;DHT22;7938;47.666;9.434;2023-06-14T19:06:22;21.70;54.90
15676;DHT22;7938;47.666;9.434;2023-06-14T19:08:51;21.50;55.80
15676;DHT22;7938;47.666;9.434;2023-06-14T19:11:18;21.40;54.20
15676;DHT22;7938;47.666;9.434;2023-06-14T19:13:45;21.30;55.20
15676;DHT22;7938;47.666;9.434;2023-06-14T19:16:13;21.20;54.90
15676;DHT22;7938;47.666;9.434;2023-06-14T19:18:41;21.10;54.00
15676;DHT22;7938;47.666;9.434;2023-06-14T19:21:08;21.00;54.90
15676;DHT22;7938;47.666;9.434;2023-06-14T19:23:35;21.00;54.90
15676;DHT22;7938;47.666;9.434;2023-06-14T19:26:03;20.90;55.00
15676;DHT22;7938;47.666;9.434;2023-06-14T19:28:31;20.80;54.60
15676;DHT22;7938;47.666;9.434;2023-06-14T19:30:57;20.50;55.10
15676;DHT22;7938;47.666;9.434;2023-06-14T19:33:24;20.50;55.60
15676;DHT22;7938;47.666;9.434;2023-06-14T19:35:53;20.50;55.80
15676;DHT22;7938;47.666;9.434;2023-06-14T19:38:20;20.40;56.00
15676;DHT22;7938;47.666;9.434;2023-06-14T19:40:47;20.10;55.80
15676;DHT22;7938;47.666;9.434;2023-06-14T19:43:14;20.10;56.70
15676;DHT22;7938;47.666;9.434;2023-06-14T19:45:40;20.00;57.80
15676;DHT22;7938;47.666;9.434;2023-06-14T19:48:08;19.80;57.00
15676;DHT22;7938;47.666;9.434;2023-06-14T19:50:36;19.70;58.30
15676;DHT22;7938;47.666;9.434;2023-06-14T19:53:04;19.60;58.80
15676;DHT22;7938;47.666;9.434;2023-06-14T19:55:31;19.60;57.50
15676;DHT22;7938;47.666;9.434;2023-06-14T19:57:58;19.50;57.50